sensor_id;sensor_type;location;lat;lon;timestamp;pressure;altitude;pressure_sealevel;temperature;humidity
9538;BME280;4807;48.024;11.726;2023-11-18T00:01:23;95655.63;;;3.68;99.94
9538;BME280;4807;48.024;11.726;2023-11-18T00:04:33;95656.19;;;3.71;100.00
9538;BME280;4807;48.024;11.726;2023-11-18T00:07:41;95654.38;;;3.72;99.83
9538;BME280;4807;48.024;11.726;2023-11-18T00:10:53;95664.91;;;3.72;99.75
9538;BME280;4807;48.024;11.726;2023-11-18T00:14:04;95665.19;;;3.69;99.76
9538;BME280;4807;48.024;11.726;2023-11-18T00:17:12;95662.16;;;3.64;100.00
9538;BME280;4807;48.024;11.726;2023-11-18T00:20:21;95669.38;;;3.62;100.00
9538;BME280;4807;48.024;11.726;2023-11-18T00:23:31;95667.84;;;3.59;100.00
9538;BME280;4807;48.024;11.726;2023-11-18T00:26:39;95674.38;;;3.65;100.00
9538;BME280;4807;48.024;11.726;2023-11-18T00:29:50;95677.91;;;3.83;99.40
9538;BME280;4807;48.024;11.726;2023-11-18T00:33:00;95669.63;;;3.78;99.46
9538;BME280;4807;48.024;11.726;2023-11-18T00:36:09;95674.63;;;3.81;99.83
9538;BME280;4807;48.024;11.726;2023-11-18T00:39:18;95675.84;;;3.87;100.00
9538;BME280;4807;48.024;11.726;2023-11-18T00:42:27;95672.75;;;3.91;99.39
9538;BME280;4807;48.024;11.726;2023-11-18T00:45:38;95687.59;;;3.92;99.11
9538;BME280;4807;48.024;11.726;2023-11-18T00:48:48;95683.88;;;3.95;98.74
9538;BME280;4807;48.024;11.726;2023-11-18T00:51:57;95689.28;;;3.83;99.19
9538;BME280;4807;48.024;11.726;2023-11-18T00:55:07;95692.59;;;3.95;98.90
9538;BME280;4807;48.024;11.726;2023-11-18T00:58:17;95693.69;;;3.93;99.28
9538;BME280;4807;48.024;11.726;2023-11-18T01:01:28;95692.72;;;4.03;99.03
9538;BME280;4807;48.024;11.726;2023-11-18T01:04:36;95695.03;;;4.06;97.86
9538;BME280;4807;48.024;11.726;2023-11-18T01:07:46;95691.44;;;4.07;97.37
9538;BME280;4807;48.024;11.726;2023-11-18T01:10:54;95687.00;;;4.08;97.72
9538;BME280;4807;48.024;11.726;2023-11-18T01:14:03;95693.69;;;4.02;98.13
9538;BME280;4807;48.024;11.726;2023-11-18T01:17:13;95695.50;;;4.02;98.26
9538;BME280;4807;48.024;11.726;2023-11-18T01:20:22;95690.09;;;4.03;97.76
9538;BME280;4807;48.024;11.726;2023-11-18T01:23:30;95694.22;;;4.06;97.93
9538;BME280;4807;48.024;11.726;2023-11-18T01:26:40;95696.47;;;4.01;97.73
9538;BME280;4807;48.024;11.726;2023-11-18T01:29:49;95702.44;;;4.03;98.61
9538;BME280;4807;48.024;11.726;2023-11-18T01:32:59;95691.88;;;4.03;97.86
9538;BME280;4807;48.024;11.726;2023-11-18T01:36:10;95709.06;;;4.07;97.89
9538;BME280;4807;48.024;11.726;2023-11-18T01:39:20;95706.72;;;4.13;97.31
9538;BME280;4807;48.024;11.726;2023-11-18T01:42:29;95708.34;;;4.14;97.71
9538;BME280;4807;48.024;11.726;2023-11-18T01:45:38;95713.91;;;4.11;97.42
9538;BME280;4807;48.024;11.726;2023-11-18T01:48:50;95710.97;;;4.14;98.05
9538;BME280;4807;48.024;11.726;2023-11-18T01:51:59;95719.19;;;4.11;97.55
9538;BME280;4807;48.024;11.726;2023-11-18T01:55:15;95722.22;;;4.16;96.36
9538;BME280;4807;48.024;11.726;2023-11-18T01:58:25;95721.41;;;4.06;96.80
9538;BME280;4807;48.024;11.726;2023-11-18T02:01:37;95720.28;;;4.09;97.70
9538;BME280;4807;48.024;11.726;2023-11-18T02:04:48;95726.25;;;4.20;97.07
9538;BME280;4807;48.024;11.726;2023-11-18T02:07:58;95724.16;;;4.14;97.19
9538;BME280;4807;48.024;11.726;2023-11-18T02:11:16;95725.53;;;4.18;96.82
9538;BME280;4807;48.024;11.726;2023-11-18T02:14:28;95725.81;;;4.25;96.69
9538;BME280;4807;48.024;11.726;2023-11-18T02:17:41;95730.81;;;4.18;96.93
9538;BME280;4807;48.024;11.726;2023-11-18T02:20:54;95728.56;;;4.23;96.33
9538;BME280;4807;48.024;11.726;2023-11-18T02:24:05;95726.78;;;4.14;96.94
9538;BME280;4807;48.024;11.726;2023-11-18T02:27:16;95735.81;;;4.21;97.44
9538;BME280;4807;48.024;11.726;2023-11-18T02:30:27;95739.69;;;4.27;97.10
9538;BME280;4807;48.024;11.726;2023-11-18T02:33:47;95733.31;;;4.20;96.71
9538;BME280;4807;48.024;11.726;2023-11-18T02:37:04;95729.97;;;4.28;96.71
9538;BME280;4807;48.024;11.726;2023-11-18T02:40:19;95727.84;;;4.31;97.00
9538;BME280;4807;48.024;11.726;2023-11-18T02:43:29;95729.09;;;4.37;96.17
9538;BME280;4807;48.024;11.726;2023-11-18T02:46:39;95732.28;;;4.31;96.56
9538;BME280;4807;48.024;11.726;2023-11-18T02:49:54;95737.00;;;4.37;96.87
9538;BME280;4807;48.024;11.726;2023-11-18T02:53:13;95732.47;;;4.29;96.91
9538;BME280;4807;48.024;11.726;2023-11-18T02:56:21;95728.56;;;4.23;96.73
9538;BME280;4807;48.024;11.726;2023-11-18T02:59:31;95726.84;;;4.42;96.45
9538;BME280;4807;48.024;11.726;2023-11-18T03:02:40;95729.38;;;4.34;97.08
9538;BME280;4807;48.024;11.726;2023-11-18T03:05:50;95733.41;;;4.38;96.70
9538;BME280;4807;48.024;11.726;2023-11-18T03:08:59;95737.53;;;4.40;96.55
9538;BME280;4807;48.024;11.726;2023-11-18T03:12:08;95730.50;;;4.31;96.61
9538;BME280;4807;48.024;11.726;2023-11-18T03:15:18;95738.38;;;4.41;96.55
9538;BME280;4807;48.024;11.726;2023-11-18T03:18:27;95737.00;;;4.37;96.62
9538;BME280;4807;48.024;11.726;2023-11-18T03:21:36;95738.50;;;4.39;96.32
9538;BME280;4807;48.024;11.726;2023-11-18T03:24:46;95735.75;;;4.41;97.05
9538;BME280;4807;48.024;11.726;2023-11-18T03:27:54;95739.22;;;4.41;96.10
9538;BME280;4807;48.024;11.726;2023-11-18T03:31:07;95738.56;;;4.30;96.46
9538;BME280;4807;48.024;11.726;2023-11-18T03:34:17;95738.72;;;4.28;97.08
9538;BME280;4807;48.024;11.726;2023-11-18T03:37:28;95741.59;;;4.35;96.15
9538;BME280;4807;48.024;11.726;2023-11-18T03:40:36;95749.38;;;4.27;96.32
9538;BME280;4807;48.024;11.726;2023-11-18T03:43:44;95756.03;;;4.31;96.77
9538;BME280;4807;48.024;11.726;2023-11-18T03:46:57;95758.00;;;4.29;96.53
9538;BME280;4807;48.024;11.726;2023-11-18T03:50:07;95761.47;;;4.29;96.67
9538;BME280;4807;48.024;11.726;2023-11-18T03:53:16;95765.19;;;4.27;96.71
9538;BME280;4807;48.024;11.726;2023-11-18T03:56:25;95766.72;;;4.29;96.87
9538;BME280;4807;48.024;11.726;2023-11-18T03:59:34;95768.66;;;4.27;96.94
9538;BME280;4807;48.024;11.726;2023-11-18T04:02:43;95769.91;;;4.23;96.95
9538;BME280;4807;48.024;11.726;2023-11-18T04:05:53;95770.88;;;4.22;97.96
9538;BME280;4807;48.024;11.726;2023-11-18T04:09:01;95775.31;;;4.31;96.90
9538;BME280;4807;48.024;11.726;2023-11-18T04:12:12;95763.53;;;4.26;96.63
9538;BME280;4807;48.024;11.726;2023-11-18T04:15:23;95779.09;;;4.29;96.52
9538;BME280;4807;48.024;11.726;2023-11-18T04:18:35;95768.81;;;4.26;97.20
9538;BME280;4807;48.024;11.726;2023-11-18T04:21:43;95773.53;;;4.22;97.60
9538;BME280;4807;48.024;11.726;2023-11-18T04:24:55;95764.09;;;4.29;96.33
9538;BME280;4807;48.024;11.726;2023-11-18T04:28:03;95767.00;;;4.26;96.42
9538;BME280;4807;48.024;11.726;2023-11-18T04:31:12;95764.13;;;4.19;97.28
9538;BME280;4807;48.024;11.726;2023-11-18T04:34:23;95770.50;;;4.17;97.49
9538;BME280;4807;48.024;11.726;2023-11-18T04:37:37;95775.59;;;4.28;97.00
9538;BME280;4807;48.024;11.726;2023-11-18T04:40:48;95771.84;;;4.31;95.92
9538;BME280;4807;48.024;11.726;2023-11-18T04:43:58;95769.66;;;4.26;96.87
9538;BME280;4807;48.024;11.726;2023-11-18T04:47:07;95776.31;;;4.20;95.93
9538;BME280;4807;48.024;11.726;2023-11-18T04:50:17;95776.59;;;4.17;97.58
9538;BME280;4807;48.024;11.726;2023-11-18T04:53:26;95774.09;;;4.26;97.01
9538;BME280;4807;48.024;11.726;2023-11-18T04:56:34;95767.72;;;4.18;96.84
9538;BME280;4807;48.024;11.726;2023-11-18T04:59:43;95767.69;;;4.28;96.64
9538;BME280;4807;48.024;11.726;2023-11-18T05:02:51;95761.75;;;4.16;96.60
9538;BME280;4807;48.024;11.726;2023-11-18T05:06:01;95766.44;;;4.22;96.89
9538;BME280;4807;48.024;11.726;2023-11-18T05:09:11;95771.91;;;4.11;97.72
9538;BME280;4807;48.024;11.726;2023-11-18T05:12:20;95778.00;;;4.12;97.73
9538;BME280;4807;48.024;11.726;2023-11-18T05:15:28;95778.53;;;4.25;97.22
9538;BME280;4807;48.024;11.726;2023-11-18T05:18:38;95778.97;;;4.20;97.18
9538;BME280;4807;48.024;11.726;2023-11-18T05:21:48;95781.03;;;4.27;96.48
9538;BME280;4807;48.024;11.726;2023-11-18T05:24:57;95789.19;;;4.23;97.54
9538;BME280;4807;48.024;11.726;2023-11-18T05:28:06;95782.69;;;4.28;96.53
9538;BME280;4807;48.024;11.726;2023-11-18T05:31:16;95775.16;;;4.33;96.60
9538;BME280;4807;48.024;11.726;2023-11-18T05:34:25;95767.56;;;4.30;96.87
9538;BME280;4807;48.024;11.726;2023-11-18T05:37:35;95757.41;;;4.35;97.08
9538;BME280;4807;48.024;11.726;2023-11-18T05:40:45;95767.56;;;4.30;96.71
9538;BME280;4807;48.024;11.726;2023-11-18T05:44:03;95767.38;;;4.41;96.26
9538;BME280;4807;48.024;11.726;2023-11-18T05:47:13;95762.00;;;4.33;96.98
9538;BME280;4807;48.024;11.726;2023-11-18T05:50:21;95762.28;;;4.30;96.37
9538;BME280;4807;48.024;11.726;2023-11-18T05:53:32;95765.78;;;4.11;96.73
9538;BME280;4807;48.024;11.726;2023-11-18T05:56:41;95774.78;;;4.28;96.24
9538;BME280;4807;48.024;11.726;2023-11-18T05:59:50;95778.78;;;4.22;96.51
9538;BME280;4807;48.024;11.726;2023-11-18T06:02:59;95780.50;;;4.13;97.20
9538;BME280;4807;48.024;11.726;2023-11-18T06:06:10;95785.59;;;4.25;96.91
9538;BME280;4807;48.024;11.726;2023-11-18T06:09:19;95782.69;;;4.28;95.95
9538;BME280;4807;48.024;11.726;2023-11-18T06:12:32;95789.63;;;4.29;96.35
9538;BME280;4807;48.024;11.726;2023-11-18T06:15:43;95794.47;;;4.23;95.85
9538;BME280;4807;48.024;11.726;2023-11-18T06:18:53;95803.09;;;4.16;97.11
9538;BME280;4807;48.024;11.726;2023-11-18T06:22:02;95803.47;;;4.31;96.70
9538;BME280;4807;48.024;11.726;2023-11-18T06:25:14;95809.31;;;4.25;96.72
9538;BME280;4807;48.024;11.726;2023-11-18T06:28:23;95806.53;;;4.26;96.69
9538;BME280;4807;48.024;11.726;2023-11-18T06:31:33;95806.09;;;4.31;96.30
9538;BME280;4807;48.024;11.726;2023-11-18T06:34:41;95807.91;;;4.30;96.05
9538;BME280;4807;48.024;11.726;2023-11-18T06:37:50;95817.66;;;4.30;96.38
9538;BME280;4807;48.024;11.726;2023-11-18T06:41:01;95805.72;;;4.26;96.85
9538;BME280;4807;48.024;11.726;2023-11-18T06:44:13;95808.06;;;4.29;96.58
9538;BME280;4807;48.024;11.726;2023-11-18T06:47:25;95810.00;;;4.27;96.76
9538;BME280;4807;48.024;11.726;2023-11-18T06:50:34;95809.56;;;4.41;96.33
9538;BME280;4807;48.024;11.726;2023-11-18T06:53:42;95799.16;;;4.39;96.51
9538;BME280;4807;48.024;11.726;2023-11-18T06:56:52;95798.44;;;4.47;96.23
9538;BME280;4807;48.024;11.726;2023-11-18T07:00:01;95798.44;;;4.47;96.23
9538;BME280;4807;48.024;11.726;2023-11-18T07:03:15;95800.41;;;4.45;96.39
9538;BME280;4807;48.024;11.726;2023-11-18T07:06:23;95805.63;;;4.64;95.52
9538;BME280;4807;48.024;11.726;2023-11-18T07:09:34;95811.34;;;4.59;95.46
9538;BME280;4807;48.024;11.726;2023-11-18T07:12:44;95819.50;;;4.66;95.10
9538;BME280;4807;48.024;11.726;2023-11-18T07:15:53;95808.38;;;4.72;94.87
9538;BME280;4807;48.024;11.726;2023-11-18T07:19:03;95813.75;;;4.80;94.66
9538;BME280;4807;48.024;11.726;2023-11-18T07:22:11;95811.81;;;4.82;94.17
9538;BME280;4807;48.024;11.726;2023-11-18T07:25:20;95820.53;;;4.92;93.76
9538;BME280;4807;48.024;11.726;2023-11-18T07:28:30;95811.88;;;5.00;93.93
9538;BME280;4807;48.024;11.726;2023-11-18T07:31:39;95817.13;;;5.10;92.76
9538;BME280;4807;48.024;11.726;2023-11-18T07:34:47;95814.06;;;5.05;92.63
9538;BME280;4807;48.024;11.726;2023-11-18T07:37:56;95814.06;;;5.05;93.25
9538;BME280;4807;48.024;11.726;2023-11-18T07:41:05;95828.34;;;5.12;93.31
9538;BME280;4807;48.024;11.726;2023-11-18T07:44:17;95830.91;;;5.31;92.44
9538;BME280;4807;48.024;11.726;2023-11-18T07:47:25;95837.84;;;5.32;93.06
9538;BME280;4807;48.024;11.726;2023-11-18T07:50:35;95842.66;;;5.36;92.27
9538;BME280;4807;48.024;11.726;2023-11-18T07:53:44;95843.59;;;5.45;91.89
9538;BME280;4807;48.024;11.726;2023-11-18T07:56:52;95841.59;;;5.57;91.25
9538;BME280;4807;48.024;11.726;2023-11-18T08:00:03;95838.22;;;5.64;90.78
9538;BME280;4807;48.024;11.726;2023-11-18T08:03:22;95831.56;;;5.60;89.91
9538;BME280;4807;48.024;11.726;2023-11-18T08:06:31;95835.72;;;5.63;89.95
9538;BME280;4807;48.024;11.726;2023-11-18T08:09:39;95832.03;;;5.73;90.77
9538;BME280;4807;48.024;11.726;2023-11-18T08:12:50;95827.34;;;5.67;89.12
9538;BME280;4807;48.024;11.726;2023-11-18T08:16:03;95835.25;;;5.95;89.45
9538;BME280;4807;48.024;11.726;2023-11-18T08:19:11;95836.00;;;6.05;88.67
9538;BME280;4807;48.024;11.726;2023-11-18T08:22:20;95834.19;;;6.23;89.05
9538;BME280;4807;48.024;11.726;2023-11-18T08:25:30;95822.44;;;6.43;88.00
9538;BME280;4807;48.024;11.726;2023-11-18T08:28:40;95829.50;;;6.61;87.17
9538;BME280;4807;48.024;11.726;2023-11-18T08:31:50;95824.19;;;6.35;86.02
9538;BME280;4807;48.024;11.726;2023-11-18T08:34:59;95821.75;;;6.41;86.14
9538;BME280;4807;48.024;11.726;2023-11-18T08:38:07;95834.34;;;6.22;86.66
9538;BME280;4807;48.024;11.726;2023-11-18T08:41:19;95844.50;;;6.34;86.79
9538;BME280;4807;48.024;11.726;2023-11-18T08:44:29;95846.25;;;6.43;87.22
9538;BME280;4807;48.024;11.726;2023-11-18T08:47:43;95853.63;;;6.58;86.08
9538;BME280;4807;48.024;11.726;2023-11-18T08:50:52;95847.94;;;6.70;86.07
9538;BME280;4807;48.024;11.726;2023-11-18T08:54:01;95843.47;;;6.71;85.86
9538;BME280;4807;48.024;11.726;2023-11-18T08:57:26;95845.84;;;6.82;85.20
9538;BME280;4807;48.024;11.726;2023-11-18T09:00:34;95836.91;;;6.83;84.87
9538;BME280;4807;48.024;11.726;2023-11-18T09:03:58;95838.09;;;6.80;83.88
9538;BME280;4807;48.024;11.726;2023-11-18T09:07:09;95842.75;;;6.86;83.57
9538;BME280;4807;48.024;11.726;2023-11-18T09:10:18;95844.56;;;6.86;84.21
9538;BME280;4807;48.024;11.726;2023-11-18T09:13:28;95824.28;;;6.69;84.08
9538;BME280;4807;48.024;11.726;2023-11-18T09:16:37;95821.13;;;6.99;83.56
9538;BME280;4807;48.024;11.726;2023-11-18T09:19:50;95816.84;;;7.06;83.22
9538;BME280;4807;48.024;11.726;2023-11-18T09:23:00;95812.13;;;6.84;82.00
9538;BME280;4807;48.024;11.726;2023-11-18T09:26:08;95815.78;;;6.91;82.69
9538;BME280;4807;48.024;11.726;2023-11-18T09:29:18;95824.91;;;6.63;83.87
9538;BME280;4807;48.024;11.726;2023-11-18T09:32:28;95814.66;;;6.94;83.74
9538;BME280;4807;48.024;11.726;2023-11-18T09:35:42;95822.44;;;6.95;81.85
9538;BME280;4807;48.024;11.726;2023-11-18T09:38:50;95841.78;;;7.21;82.51
9538;BME280;4807;48.024;11.726;2023-11-18T09:42:00;95829.19;;;7.23;80.37
9538;BME280;4807;48.024;11.726;2023-11-18T09:45:10;95837.97;;;7.66;79.40
9538;BME280;4807;48.024;11.726;2023-11-18T09:48:21;95830.84;;;7.66;79.14
9538;BME280;4807;48.024;11.726;2023-11-18T09:51:38;95828.31;;;7.49;78.55
9538;BME280;4807;48.024;11.726;2023-11-18T09:54:57;95827.25;;;7.34;75.40
9538;BME280;4807;48.024;11.726;2023-11-18T09:58:15;95818.59;;;7.65;76.77
9538;BME280;4807;48.024;11.726;2023-11-18T10:01:36;95813.13;;;7.67;75.02
9538;BME280;4807;48.024;11.726;2023-11-18T10:04:48;95815.88;;;7.49;76.67
9538;BME280;4807;48.024;11.726;2023-11-18T10:07:59;95827.34;;;7.58;77.09
9538;BME280;4807;48.024;11.726;2023-11-18T10:11:08;95823.81;;;7.41;75.80
9538;BME280;4807;48.024;11.726;2023-11-18T10:14:20;95827.59;;;7.39;76.70
9538;BME280;4807;48.024;11.726;2023-11-18T10:17:31;95816.47;;;7.77;78.63
9538;BME280;4807;48.024;11.726;2023-11-18T10:20:47;95807.66;;;7.69;76.56
9538;BME280;4807;48.024;11.726;2023-11-18T10:24:03;95820.91;;;7.60;76.67
9538;BME280;4807;48.024;11.726;2023-11-18T10:27:17;95802.63;;;7.49;75.13
9538;BME280;4807;48.024;11.726;2023-11-18T10:30:26;95791.56;;;7.54;75.59
9538;BME280;4807;48.024;11.726;2023-11-18T10:33:36;95786.13;;;7.72;75.23
9538;BME280;4807;48.024;11.726;2023-11-18T10:36:59;95792.00;;;8.24;73.72
9538;BME280;4807;48.024;11.726;2023-11-18T10:40:14;95788.34;;;8.17;72.82
9538;BME280;4807;48.024;11.726;2023-11-18T10:43:23;95784.84;;;8.16;72.55
9538;BME280;4807;48.024;11.726;2023-11-18T10:46:32;95784.00;;;7.83;72.79
9538;BME280;4807;48.024;11.726;2023-11-18T10:49:42;95769.59;;;7.86;73.58
9538;BME280;4807;48.024;11.726;2023-11-18T10:52:51;95768.78;;;8.10;73.63
9538;BME280;4807;48.024;11.726;2023-11-18T10:56:04;95779.91;;;8.37;71.44
9538;BME280;4807;48.024;11.726;2023-11-18T10:59:13;95790.25;;;9.04;70.89
9538;BME280;4807;48.024;11.726;2023-11-18T11:02:23;95798.16;;;9.59;68.61
9538;BME280;4807;48.024;11.726;2023-11-18T11:05:32;95804.53;;;9.81;67.95
9538;BME280;4807;48.024;11.726;2023-11-18T11:08:45;95796.53;;;10.35;64.40
9538;BME280;4807;48.024;11.726;2023-11-18T11:11:58;95785.09;;;9.41;65.27
9538;BME280;4807;48.024;11.726;2023-11-18T11:15:18;95785.81;;;9.66;67.60
9538;BME280;4807;48.024;11.726;2023-11-18T11:18:32;95785.38;;;10.08;67.92
9538;BME280;4807;48.024;11.726;2023-11-18T11:22:00;95794.13;;;9.94;63.18
9538;BME280;4807;48.024;11.726;2023-11-18T11:25:20;95783.25;;;9.03;64.90
9538;BME280;4807;48.024;11.726;2023-11-18T11:28:40;95785.53;;;9.84;69.01
9538;BME280;4807;48.024;11.726;2023-11-18T11:32:11;95772.13;;;10.00;66.24
9538;BME280;4807;48.024;11.726;2023-11-18T11:35:27;95782.38;;;10.11;62.53
9538;BME280;4807;48.024;11.726;2023-11-18T11:38:38;95792.16;;;9.57;63.68
9538;BME280;4807;48.024;11.726;2023-11-18T11:41:51;95797.97;;;10.14;63.91
9538;BME280;4807;48.024;11.726;2023-11-18T11:45:05;95796.09;;;10.23;62.60
9538;BME280;4807;48.024;11.726;2023-11-18T11:48:16;95782.28;;;8.96;65.61
9538;BME280;4807;48.024;11.726;2023-11-18T11:51:41;95790.19;;;9.20;66.77
9538;BME280;4807;48.024;11.726;2023-11-18T11:55:09;95779.75;;;9.10;65.96
9538;BME280;4807;48.024;11.726;2023-11-18T11:58:27;95771.66;;;8.96;66.56
9538;BME280;4807;48.024;11.726;2023-11-18T12:01:38;95767.56;;;8.77;66.50
9538;BME280;4807;48.024;11.726;2023-11-18T12:04:48;95775.72;;;8.67;65.28
9538;BME280;4807;48.024;11.726;2023-11-18T12:08:01;95773.09;;;8.59;64.89
9538;BME280;4807;48.024;11.726;2023-11-18T12:11:09;95763.13;;;8.61;66.90
9538;BME280;4807;48.024;11.726;2023-11-18T12:14:20;95757.34;;;8.58;65.55
9538;BME280;4807;48.024;11.726;2023-11-18T12:18:11;95753.19;;;8.23;66.00
9538;BME280;4807;48.024;11.726;2023-11-18T12:21:54;95754.34;;;8.53;64.75
9538;BME280;4807;48.024;11.726;2023-11-18T12:25:30;95759.44;;;8.70;64.01
9538;BME280;4807;48.024;11.726;2023-11-18T12:28:40;95760.16;;;8.56;65.98
9538;BME280;4807;48.024;11.726;2023-11-18T12:31:53;95750.84;;;8.60;65.94
9538;BME280;4807;48.024;11.726;2023-11-18T12:35:04;95753.16;;;8.63;66.40
9538;BME280;4807;48.024;11.726;2023-11-18T12:38:52;95739.56;;;8.66;66.63
9538;BME280;4807;48.024;11.726;2023-11-18T12:42:06;95727.66;;;8.46;65.53
9538;BME280;4807;48.024;11.726;2023-11-18T12:45:43;95724.69;;;8.41;67.67
9538;BME280;4807;48.024;11.726;2023-11-18T12:48:56;95713.19;;;8.57;66.32
9538;BME280;4807;48.024;11.726;2023-11-18T12:52:10;95717.03;;;8.46;65.83
9538;BME280;4807;48.024;11.726;2023-11-18T12:55:21;95707.53;;;8.60;65.64
9538;BME280;4807;48.024;11.726;2023-11-18T12:58:30;95700.78;;;8.49;65.08
9538;BME280;4807;48.024;11.726;2023-11-18T13:01:41;95705.72;;;8.52;66.06
9538;BME280;4807;48.024;11.726;2023-11-18T13:04:50;95702.78;;;8.39;65.75
9538;BME280;4807;48.024;11.726;2023-11-18T13:08:02;95702.75;;;8.47;66.67
9538;BME280;4807;48.024;11.726;2023-11-18T13:11:10;95705.53;;;8.62;67.27
9538;BME280;4807;48.024;11.726;2023-11-18T13:14:25;95693.25;;;8.69;67.24
9538;BME280;4807;48.024;11.726;2023-11-18T13:17:34;95681.13;;;8.74;66.56
9538;BME280;4807;48.024;11.726;2023-11-18T13:20:54;95685.25;;;8.77;66.19
9538;BME280;4807;48.024;11.726;2023-11-18T13:24:08;95689.75;;;8.68;67.52
9538;BME280;4807;48.024;11.726;2023-11-18T13:27:19;95687.13;;;8.60;67.69
9538;BME280;4807;48.024;11.726;2023-11-18T13:30:28;95685.22;;;8.14;67.34
9538;BME280;4807;48.024;11.726;2023-11-18T13:33:38;95681.44;;;7.92;67.26
9538;BME280;4807;48.024;11.726;2023-11-18T13:36:47;95672.13;;;7.80;68.19
9538;BME280;4807;48.024;11.726;2023-11-18T13:39:57;95672.16;;;7.72;68.11
9538;BME280;4807;48.024;11.726;2023-11-18T13:43:07;95665.19;;;7.62;69.92
9538;BME280;4807;48.024;11.726;2023-11-18T13:46:18;95665.84;;;7.48;67.53
9538;BME280;4807;48.024;11.726;2023-11-18T13:49:28;95663.03;;;7.42;69.64
9538;BME280;4807;48.024;11.726;2023-11-18T13:52:37;95658.88;;;7.39;71.07
9538;BME280;4807;48.024;11.726;2023-11-18T13:55:47;95661.72;;;7.38;69.53
9538;BME280;4807;48.024;11.726;2023-11-18T13:58:58;95667.97;;;7.28;70.47
9538;BME280;4807;48.024;11.726;2023-11-18T14:02:07;95669.66;;;7.30;69.21
9538;BME280;4807;48.024;11.726;2023-11-18T14:05:16;95662.66;;;7.12;70.91
9538;BME280;4807;48.024;11.726;2023-11-18T14:08:25;95654.72;;;7.20;72.19
9538;BME280;4807;48.024;11.726;2023-11-18T14:11:34;95649.59;;;7.27;72.92
9538;BME280;4807;48.024;11.726;2023-11-18T14:14:43;95652.56;;;7.32;74.24
9538;BME280;4807;48.024;11.726;2023-11-18T14:17:52;95645.47;;;7.41;74.82
9538;BME280;4807;48.024;11.726;2023-11-18T14:21:01;95644.78;;;7.31;73.59
9538;BME280;4807;48.024;11.726;2023-11-18T14:24:10;95641.31;;;7.38;71.98
9538;BME280;4807;48.024;11.726;2023-11-18T14:27:20;95652.41;;;7.34;73.29
9538;BME280;4807;48.024;11.726;2023-11-18T14:30:29;95642.47;;;7.27;73.62
9538;BME280;4807;48.024;11.726;2023-11-18T14:33:37;95633.19;;;7.15;73.73
9538;BME280;4807;48.024;11.726;2023-11-18T14:36:46;95630.69;;;7.06;74.79
9538;BME280;4807;48.024;11.726;2023-11-18T14:39:54;95632.16;;;7.00;76.02
9538;BME280;4807;48.024;11.726;2023-11-18T14:43:05;95627.34;;;6.87;76.12
9538;BME280;4807;48.024;11.726;2023-11-18T14:46:15;95625.16;;;6.75;77.41
9538;BME280;4807;48.024;11.726;2023-11-18T14:49:23;95619.59;;;6.52;78.49
9538;BME280;4807;48.024;11.726;2023-11-18T14:52:31;95630.81;;;6.38;79.43
9538;BME280;4807;48.024;11.726;2023-11-18T14:55:40;95655.94;;;6.08;80.29
9538;BME280;4807;48.024;11.726;2023-11-18T14:58:50;95660.78;;;5.95;81.94
9538;BME280;4807;48.024;11.726;2023-11-18T15:01:59;95645.41;;;5.72;82.30
9538;BME280;4807;48.024;11.726;2023-11-18T15:05:07;95636.59;;;5.64;83.53
9538;BME280;4807;48.024;11.726;2023-11-18T15:08:17;95633.06;;;5.55;84.21
9538;BME280;4807;48.024;11.726;2023-11-18T15:11:25;95625.06;;;5.47;85.12
9538;BME280;4807;48.024;11.726;2023-11-18T15:14:35;95622.72;;;5.44;85.65
9538;BME280;4807;48.024;11.726;2023-11-18T15:17:47;95621.09;;;5.43;86.21
9538;BME280;4807;48.024;11.726;2023-11-18T15:20:57;95618.47;;;5.43;86.19
9538;BME280;4807;48.024;11.726;2023-11-18T15:24:06;95615.63;;;5.45;87.19
9538;BME280;4807;48.024;11.726;2023-11-18T15:27:16;95596.72;;;5.49;87.08
9538;BME280;4807;48.024;11.726;2023-11-18T15:30:26;95593.69;;;5.44;88.14
9538;BME280;4807;48.024;11.726;2023-11-18T15:33:34;95577.88;;;5.52;87.92
9538;BME280;4807;48.024;11.726;2023-11-18T15:36:44;95572.25;;;5.47;88.80
9538;BME280;4807;48.024;11.726;2023-11-18T15:39:54;95564.63;;;5.44;88.44
9538;BME280;4807;48.024;11.726;2023-11-18T15:43:03;95559.28;;;5.36;89.27
9538;BME280;4807;48.024;11.726;2023-11-18T15:46:14;95560.59;;;5.32;89.24
9538;BME280;4807;48.024;11.726;2023-11-18T15:49:22;95548.56;;;5.37;89.37
9538;BME280;4807;48.024;11.726;2023-11-18T15:52:32;95539.53;;;5.40;88.84
9538;BME280;4807;48.024;11.726;2023-11-18T15:55:42;95538.31;;;5.09;90.24
9538;BME280;4807;48.024;11.726;2023-11-18T15:58:55;95557.22;;;5.22;89.78
9538;BME280;4807;48.024;11.726;2023-11-18T16:02:04;95565.91;;;5.14;90.52
9538;BME280;4807;48.024;11.726;2023-11-18T16:05:14;95570.06;;;5.17;90.77
9538;BME280;4807;48.024;11.726;2023-11-18T16:08:22;95558.19;;;5.21;90.41
9538;BME280;4807;48.024;11.726;2023-11-18T16:11:31;95559.34;;;5.01;90.55
9538;BME280;4807;48.024;11.726;2023-11-18T16:14:39;95569.28;;;5.07;88.74
9538;BME280;4807;48.024;11.726;2023-11-18T16:17:51;95573.88;;;5.22;89.15
9538;BME280;4807;48.024;11.726;2023-11-18T16:21:00;95568.50;;;5.32;89.17
9538;BME280;4807;48.024;11.726;2023-11-18T16:24:10;95564.38;;;5.29;87.58
9538;BME280;4807;48.024;11.726;2023-11-18T16:27:18;95566.16;;;5.29;88.23
9538;BME280;4807;48.024;11.726;2023-11-18T16:30:27;95556.97;;;5.33;88.34
9538;BME280;4807;48.024;11.726;2023-11-18T16:33:39;95538.56;;;5.41;87.77
9538;BME280;4807;48.024;11.726;2023-11-18T16:36:50;95533.56;;;5.38;87.66
9538;BME280;4807;48.024;11.726;2023-11-18T16:40:04;95534.03;;;5.33;87.41
9538;BME280;4807;48.024;11.726;2023-11-18T16:43:13;95520.16;;;5.31;87.98
9538;BME280;4807;48.024;11.726;2023-11-18T16:46:22;95523.28;;;5.27;88.07
9538;BME280;4807;48.024;11.726;2023-11-18T16:49:32;95533.97;;;5.25;88.14
9538;BME280;4807;48.024;11.726;2023-11-18T16:52:40;95521.28;;;5.29;87.74
9538;BME280;4807;48.024;11.726;2023-11-18T16:55:49;95538.72;;;5.22;87.49
9538;BME280;4807;48.024;11.726;2023-11-18T16:58:57;95535.06;;;5.15;87.95
9538;BME280;4807;48.024;11.726;2023-11-18T17:02:06;95547.63;;;5.21;87.87
9538;BME280;4807;48.024;11.726;2023-11-18T17:05:17;95541.88;;;4.99;88.15
9538;BME280;4807;48.024;11.726;2023-11-18T17:08:27;95548.78;;;5.18;88.35
9538;BME280;4807;48.024;11.726;2023-11-18T17:11:37;95558.75;;;5.07;88.22
9538;BME280;4807;48.024;11.726;2023-11-18T17:14:45;95561.16;;;5.18;88.03
9538;BME280;4807;48.024;11.726;2023-11-18T17:17:56;95564.16;;;5.23;87.85
9538;BME280;4807;48.024;11.726;2023-11-18T17:21:11;95567.78;;;5.22;88.30